createdAt,value
2023-02-01T00:00:08.831Z,82.38
2023-02-01T00:02:42.345Z,79.70
2023-02-01T00:05:12.356Z,71.15
2023-02-01T00:07:41.757Z,60.42
2023-02-01T00:10:12.023Z,54.33
2023-02-01T00:12:41.678Z,53.50
2023-02-01T00:15:11.923Z,49.22
2023-02-01T00:17:42.706Z,44.67
2023-02-01T00:20:12.714Z,40.10
2023-02-01T00:22:42.299Z,35.70
2023-02-01T00:25:13.108Z,35.80
2023-02-01T00:27:42.832Z,35.33
2023-02-01T00:30:13.226Z,32.42
2023-02-01T00:32:42.652Z,31.08
2023-02-01T00:35:13.513Z,35.47
2023-02-01T00:37:43.199Z,37.05
2023-02-01T00:40:13.165Z,43.28
2023-02-01T00:42:42.717Z,39.40
2023-02-01T00:45:12.756Z,40.70
2023-02-01T00:47:42.308Z,36.88
2023-02-01T00:50:12.604Z,37.55
2023-02-01T00:52:42.186Z,35.08
2023-02-01T00:55:11.508Z,33.88
2023-02-01T00:57:41.130Z,32.92
2023-02-01T01:00:13.233Z,32.95
2023-02-01T01:02:44.530Z,34.40
2023-02-01T01:05:18.889Z,40.28
2023-02-01T01:07:49.268Z,42.10
2023-02-01T01:10:19.787Z,46.58
2023-02-01T01:12:50.466Z,49.65
2023-02-01T01:15:21.153Z,55.53
2023-02-01T01:17:54.338Z,54.35
2023-02-01T01:20:36.878Z,50.70
2023-02-01T01:23:09.936Z,44.38
2023-02-01T01:29:44.054Z,42.72
2023-02-01T01:32:14.803Z,42.03
2023-02-01T01:34:45.265Z,45.10
2023-02-01T01:37:26.586Z,44.80
2023-02-01T01:39:58.169Z,49.97
2023-02-01T01:42:28.385Z,55.72
2023-02-01T01:45:09.222Z,55.22
2023-02-01T01:47:49.532Z,63.13
2023-02-01T01:50:26.408Z,64.90
2023-02-01T01:53:00.443Z,64.25
2023-02-01T01:55:35.030Z,71.45
2023-02-01T01:58:13.273Z,71.50
2023-02-01T02:00:44.850Z,81.32
2023-02-01T02:03:52.533Z,76.25
2023-02-01T02:06:34.053Z,76.30
2023-02-01T02:09:06.929Z,79.68
2023-02-01T02:11:37.448Z,83.47
2023-02-01T02:14:50.106Z,92.13
2023-02-01T02:17:39.151Z,88.00
2023-02-01T02:20:42.721Z,96.60
2023-02-01T02:24:05.908Z,92.07
2023-02-01T02:27:03.449Z,95.68
2023-02-01T02:29:58.511Z,92.50
2023-02-01T02:32:50.086Z,88.00
2023-02-01T02:35:46.977Z,84.25
2023-02-01T02:38:39.493Z,77.65
2023-02-01T02:41:40.483Z,78.43
2023-02-01T02:44:52.864Z,73.72
2023-02-01T02:47:51.698Z,71.20
2023-02-01T02:50:53.292Z,78.72
2023-02-01T02:54:09.445Z,75.07
2023-02-01T02:56:59.140Z,67.20
2023-02-01T02:59:49.808Z,69.03
2023-02-01T03:02:38.569Z,66.18
2023-02-01T03:05:08.602Z,62.47
2023-02-01T03:07:47.416Z,58.75
2023-02-01T03:10:23.480Z,51.95
2023-02-01T03:13:00.879Z,50.70
2023-02-01T03:15:42.437Z,49.22
2023-02-01T03:18:31.145Z,46.95
2023-02-01T03:21:05.547Z,46.00
2023-02-01T03:23:40.362Z,42.67
2023-02-01T03:26:17.126Z,39.80
2023-02-01T03:28:57.818Z,37.95
2023-02-01T03:31:29.599Z,36.28
2023-02-01T03:33:59.041Z,33.55
2023-02-01T03:36:37.640Z,34.00
2023-02-01T03:39:19.921Z,33.47
2023-02-01T03:41:57.748Z,30.35
2023-02-01T03:44:54.040Z,29.13
2023-02-01T03:47:29.598Z,29.60
2023-02-01T03:50:09.356Z,25.38
2023-02-01T03:52:51.321Z,26.05
2023-02-01T03:55:24.378Z,23.42
2023-02-01T03:58:12.030Z,24.60
2023-02-01T04:00:41.940Z,24.90
2023-02-01T04:03:11.079Z,26.80
2023-02-01T04:05:39.843Z,24.00
2023-02-01T04:08:10.803Z,27.67
2023-02-01T04:10:40.106Z,26.58
2023-02-01T04:13:10.216Z,26.85
2023-02-01T04:15:40.271Z,26.50
2023-02-01T04:18:09.080Z,25.42
2023-02-01T04:20:38.480Z,26.52
2023-02-01T04:23:07.673Z,26.23
2023-02-01T04:25:36.895Z,23.60
2023-02-01T04:28:06.702Z,22.38
2023-02-01T04:30:36.372Z,24.45
2023-02-01T04:33:08.471Z,21.00
2023-02-01T04:35:37.798Z,21.55
2023-02-01T04:38:06.711Z,19.58
2023-02-01T04:40:36.376Z,19.45
2023-02-01T04:43:19.408Z,19.08
2023-02-01T04:45:57.796Z,20.02
2023-02-01T04:48:27.296Z,20.38
2023-02-01T04:50:56.291Z,19.75
2023-02-01T04:53:25.413Z,20.42
2023-02-01T04:55:54.613Z,20.58
2023-02-01T04:58:23.949Z,17.10
2023-02-01T05:00:53.683Z,18.60
2023-02-01T05:03:23.083Z,17.48
2023-02-01T05:05:53.917Z,17.45
2023-02-01T05:08:27.296Z,18.15
2023-02-01T05:10:56.785Z,16.92
2023-02-01T05:13:44.233Z,16.25
2023-02-01T05:16:16.084Z,19.25
2023-02-01T05:18:45.719Z,19.27
2023-02-01T05:21:15.319Z,18.75
2023-02-01T05:24:03.669Z,16.73
2023-02-01T05:26:33.178Z,16.42
2023-02-01T05:29:06.520Z,16.52
2023-02-01T05:31:44.690Z,17.73
2023-02-01T05:34:20.888Z,18.20
2023-02-01T05:36:54.708Z,17.48
2023-02-01T05:39:56.176Z,13.73
2023-02-01T05:42:35.750Z,17.02
2023-02-01T05:45:17.916Z,15.82
2023-02-01T05:47:48.274Z,14.68
2023-02-01T05:50:19.705Z,17.65
2023-02-01T05:52:50.483Z,14.43
2023-02-01T05:55:21.145Z,16.92
2023-02-01T05:57:51.653Z,15.45
2023-02-01T06:02:58.367Z,14.40
2023-02-01T06:05:54.139Z,15.33
2023-02-01T06:08:33.175Z,15.43
2023-02-01T06:11:10.935Z,15.48
2023-02-01T06:13:42.340Z,16.33
2023-02-01T06:16:19.436Z,18.67
2023-02-01T06:19:01.480Z,15.25
2023-02-01T06:21:31.978Z,16.05
2023-02-01T06:24:03.545Z,14.80
2023-02-01T06:26:34.138Z,14.50
2023-02-01T06:29:04.232Z,15.05
2023-02-01T06:31:37.998Z,12.95
2023-02-01T06:34:08.422Z,12.80
2023-02-01T06:36:38.893Z,13.02
2023-02-01T06:39:09.466Z,12.70
2023-02-01T06:41:39.756Z,13.15
2023-02-01T06:44:09.817Z,14.13
2023-02-01T06:46:40.064Z,14.02
2023-02-01T06:49:11.086Z,14.07
2023-02-01T06:51:54.019Z,12.80
2023-02-01T06:54:47.584Z,14.43
2023-02-01T06:57:21.685Z,14.00
2023-02-01T06:59:51.352Z,14.13
2023-02-01T07:02:20.555Z,15.57
2023-02-01T07:04:49.985Z,15.15
2023-02-01T07:07:21.507Z,15.55
2023-02-01T07:10:01.567Z,15.63
2023-02-01T07:12:31.077Z,14.88
2023-02-01T07:15:00.413Z,18.13
2023-02-01T07:17:31.270Z,15.90
2023-02-01T07:20:02.077Z,15.93
2023-02-01T07:22:31.462Z,17.23
2023-02-01T07:25:00.656Z,14.80
2023-02-01T07:27:29.827Z,17.67
2023-02-01T07:30:02.053Z,14.55
2023-02-01T07:32:32.286Z,13.18
2023-02-01T07:35:01.583Z,15.32
2023-02-01T07:37:31.845Z,13.38
2023-02-01T07:40:01.090Z,12.00
2023-02-01T07:42:30.351Z,12.38
2023-02-01T07:45:07.890Z,11.50
2023-02-01T07:47:44.274Z,14.63
2023-02-01T07:50:13.311Z,14.95
2023-02-01T07:52:42.713Z,11.60
2023-02-01T07:55:12.284Z,11.30
2023-02-01T07:57:41.722Z,15.20
2023-02-01T08:00:44.278Z,13.90
2023-02-01T08:03:14.150Z,13.23
2023-02-01T08:05:44.771Z,14.38
2023-02-01T08:08:15.004Z,12.77
2023-02-01T08:10:44.356Z,14.45
2023-02-01T08:13:13.556Z,14.30
2023-02-01T08:15:42.816Z,13.38
2023-02-01T08:18:13.113Z,14.10
2023-02-01T08:20:44.472Z,14.05
2023-02-01T08:26:39.186Z,14.38
2023-02-01T08:29:11.364Z,12.85
2023-02-01T08:31:44.017Z,13.95
2023-02-01T08:34:16.423Z,14.52
2023-02-01T08:37:00.487Z,13.30
2023-02-01T08:43:18.950Z,13.18
2023-02-01T08:45:48.525Z,12.60
2023-02-01T08:48:18.293Z,13.50
2023-02-01T08:50:47.995Z,11.25
2023-02-01T08:53:23.597Z,11.98
2023-02-01T08:55:53.557Z,13.48
2023-02-01T08:58:23.767Z,11.45
2023-02-01T09:00:54.066Z,10.82
2023-02-01T09:03:24.494Z,13.15
2023-02-01T09:05:54.645Z,12.07
2023-02-01T09:08:24.438Z,12.20
2023-02-01T09:10:53.810Z,13.07
2023-02-01T09:13:24.761Z,23.52
2023-02-01T09:15:54.633Z,12.90
2023-02-01T09:18:24.418Z,12.98
2023-02-01T09:25:32.473Z,10.65
2023-02-01T09:28:02.682Z,10.43
2023-02-01T09:30:33.069Z,10.95
2023-02-01T09:33:03.294Z,11.30
2023-02-01T09:35:33.470Z,12.63
2023-02-01T09:42:26.386Z,11.98
2023-02-01T09:45:12.962Z,12.82
2023-02-01T09:48:13.415Z,12.38
2023-02-01T09:50:56.453Z,12.30
2023-02-01T09:53:33.901Z,13.27
2023-02-01T09:56:25.958Z,14.50
2023-02-01T09:59:45.793Z,14.75
2023-02-01T10:02:27.497Z,13.23
2023-02-01T10:05:05.704Z,11.90
2023-02-01T10:07:46.210Z,12.60
2023-02-01T10:10:28.632Z,12.65
2023-02-01T10:13:21.559Z,10.55
2023-02-01T10:16:16.913Z,11.63
2023-02-01T10:19:19.272Z,13.07
2023-02-01T10:22:12.817Z,14.02
2023-02-01T10:24:53.840Z,11.68
2023-02-01T10:27:32.459Z,11.98
2023-02-01T10:30:19.244Z,12.38
2023-02-01T10:32:52.488Z,11.18
2023-02-01T10:35:30.936Z,11.02
2023-02-01T10:38:04.874Z,11.20
2023-02-01T10:40:37.063Z,13.65
2023-02-01T10:43:06.413Z,11.98
2023-02-01T10:45:40.707Z,11.73
2023-02-01T10:48:12.307Z,12.77
2023-02-01T10:51:19.810Z,14.10
2023-02-01T10:54:04.969Z,14.18
2023-02-01T10:56:43.073Z,15.35
2023-02-01T11:00:11.925Z,14.88
2023-02-01T11:02:42.083Z,15.00
2023-02-01T11:05:14.256Z,13.90
2023-02-01T11:07:51.016Z,13.90
2023-02-01T11:10:40.111Z,19.08
2023-02-01T11:13:21.913Z,13.27
2023-02-01T11:16:00.593Z,13.02
2023-02-01T11:18:32.511Z,17.20
2023-02-01T11:21:02.809Z,15.30
2023-02-01T11:23:35.589Z,13.38
2023-02-01T11:26:23.161Z,14.57
2023-02-01T11:29:18.869Z,14.75
2023-02-01T11:31:53.439Z,14.70
2023-02-01T11:34:32.943Z,15.25
2023-02-01T11:37:08.111Z,15.80
2023-02-01T11:39:47.649Z,17.40
2023-02-01T11:42:23.105Z,14.95
2023-02-01T11:45:41.166Z,17.92
2023-02-01T11:49:00.200Z,17.08
2023-02-01T11:53:30.449Z,17.10
2023-02-01T12:00:46.519Z,19.80
2023-02-01T12:03:59.960Z,21.40
2023-02-01T12:06:56.242Z,20.23
2023-02-01T12:09:40.874Z,24.67
2023-02-01T12:12:29.918Z,23.08
2023-02-01T12:15:17.082Z,23.50
2023-02-01T12:18:24.674Z,27.40
2023-02-01T12:21:25.175Z,21.38
2023-02-01T12:24:12.820Z,18.65
2023-02-01T12:26:57.330Z,19.25
2023-02-01T12:30:39.164Z,18.23
2023-02-01T12:33:51.701Z,18.00
2023-02-01T12:36:44.206Z,20.27
2023-02-01T12:43:13.503Z,20.13
2023-02-01T12:45:59.697Z,21.60
2023-02-01T12:48:29.186Z,22.90
2023-02-01T12:51:10.443Z,27.85
2023-02-01T12:54:13.166Z,27.67
2023-02-01T12:56:45.762Z,26.52
2023-02-01T12:59:33.460Z,22.42
2023-02-01T13:02:32.000Z,18.90
2023-02-01T13:05:14.219Z,19.90
2023-02-01T13:07:50.431Z,23.20
2023-02-01T13:11:04.690Z,25.38
2023-02-01T13:13:50.903Z,23.15
2023-02-01T13:16:29.117Z,23.75
2023-02-01T13:19:43.156Z,23.52
2023-02-01T13:22:38.233Z,22.85
2023-02-01T13:25:46.976Z,27.80
2023-02-01T13:28:41.229Z,31.85
2023-02-01T13:31:11.744Z,38.92
2023-02-01T13:34:25.545Z,41.35
2023-02-01T13:37:10.475Z,38.83
2023-02-01T13:39:57.711Z,36.67
2023-02-01T13:42:40.589Z,39.58
2023-02-01T13:45:27.499Z,42.03
2023-02-01T13:48:01.030Z,47.40
2023-02-01T13:50:39.551Z,47.72
2023-02-01T13:53:24.179Z,52.75
2023-02-01T13:56:02.499Z,48.65
2023-02-01T13:58:35.811Z,48.60
2023-02-01T14:01:23.901Z,49.05
2023-02-01T14:04:05.140Z,49.65
2023-02-01T14:06:45.731Z,51.28
2023-02-01T14:09:39.187Z,49.20
2023-02-01T14:16:14.426Z,53.10
2023-02-01T14:18:49.492Z,58.67
2023-02-01T14:21:35.380Z,59.42
2023-02-01T14:24:10.413Z,62.97
2023-02-01T14:26:50.839Z,83.50
2023-02-01T14:29:29.523Z,104.95
2023-02-01T14:32:18.734Z,101.55
2023-02-01T14:34:51.337Z,124.93
2023-02-01T14:40:19.404Z,96.47
2023-02-01T14:42:54.670Z,86.45
2023-02-01T14:45:24.611Z,81.30
2023-02-01T14:48:09.832Z,75.95
2023-02-01T14:50:53.747Z,69.88
2023-02-01T14:53:38.461Z,67.88
2023-02-01T14:56:17.250Z,67.85
2023-02-01T14:59:19.986Z,72.88
2023-02-01T15:01:54.964Z,66.85
2023-02-01T15:04:29.755Z,72.93
2023-02-01T15:07:18.760Z,64.18
2023-02-01T15:09:51.722Z,63.75
2023-02-01T15:12:36.862Z,59.20
2023-02-01T15:15:27.685Z,58.50
2023-02-01T15:18:02.263Z,52.93
2023-02-01T15:20:34.474Z,53.50
2023-02-01T15:25:40.339Z,48.90
2023-02-01T15:28:16.653Z,64.13
2023-02-01T15:31:01.422Z,64.20
2023-02-01T15:33:33.063Z,74.35
2023-02-01T15:36:08.514Z,77.18
2023-02-01T15:38:46.773Z,69.70
2023-02-01T15:41:21.504Z,77.82
2023-02-01T15:44:16.851Z,70.32
2023-02-01T15:46:49.556Z,70.47
2023-02-01T15:51:52.814Z,87.28
2023-02-01T15:54:46.213Z,111.85
2023-02-01T15:57:33.396Z,116.13
2023-02-01T16:00:42.895Z,73.22
2023-02-01T16:03:35.757Z,66.82
2023-02-01T16:06:08.549Z,64.40
2023-02-01T16:08:39.120Z,68.15
2023-02-01T16:11:10.773Z,67.22
2023-02-01T16:13:39.775Z,71.38
2023-02-01T16:16:10.813Z,71.80
2023-02-01T16:18:39.838Z,78.22
2023-02-01T16:21:12.543Z,80.22
2023-02-01T16:23:42.543Z,79.20
2023-02-01T16:26:13.662Z,78.30
2023-02-01T16:28:43.691Z,77.97
2023-02-01T16:31:22.117Z,78.97
2023-02-01T16:33:54.206Z,78.03
2023-02-01T16:36:24.987Z,82.28
2023-02-01T16:38:56.116Z,77.15
2023-02-01T16:41:27.226Z,75.95
2023-02-01T16:43:58.237Z,75.28
2023-02-01T16:46:32.269Z,74.88
2023-02-01T16:49:03.382Z,75.70
2023-02-01T16:51:37.679Z,72.07
2023-02-01T16:54:07.509Z,76.70
2023-02-01T16:56:37.997Z,78.25
2023-02-01T16:59:07.929Z,78.80
2023-02-01T17:01:39.794Z,80.22
2023-02-01T17:04:09.945Z,84.32
2023-02-01T17:06:41.068Z,80.72
2023-02-01T17:09:12.626Z,84.82
2023-02-01T17:11:41.908Z,87.88
2023-02-01T17:14:18.225Z,89.35
2023-02-01T17:16:50.208Z,87.65
2023-02-01T17:19:24.841Z,92.35
2023-02-01T17:22:00.390Z,97.78
2023-02-01T17:24:42.719Z,99.93
2023-02-01T17:27:18.661Z,94.30
2023-02-01T17:29:49.522Z,92.53
2023-02-01T17:32:25.299Z,97.18
2023-02-01T17:34:54.384Z,96.50
2023-02-01T17:37:34.698Z,99.18
2023-02-01T17:40:04.385Z,99.45
2023-02-01T17:42:33.169Z,103.05
2023-02-01T17:45:13.246Z,100.15
2023-02-01T17:47:42.384Z,101.05
2023-02-01T17:50:11.977Z,97.22
2023-02-01T17:52:42.075Z,101.00
2023-02-01T17:55:24.360Z,100.40
2023-02-01T17:57:53.701Z,95.47
2023-02-01T18:00:23.292Z,98.97
2023-02-01T18:02:53.612Z,98.05
2023-02-01T18:05:30.524Z,100.10
2023-02-01T18:07:59.502Z,103.07
2023-02-01T18:10:28.297Z,99.90
2023-02-01T18:12:58.495Z,101.63
2023-02-01T18:15:27.611Z,105.72
2023-02-01T18:17:56.364Z,103.93
2023-02-01T18:20:28.137Z,100.93
2023-02-01T18:22:57.284Z,100.70
2023-02-01T18:25:28.751Z,107.22
2023-02-01T18:27:58.627Z,105.13
2023-02-01T18:30:33.857Z,106.75
2023-02-01T18:33:03.013Z,108.38
2023-02-01T18:35:33.742Z,107.85
2023-02-01T18:38:02.803Z,109.60
2023-02-01T18:40:47.010Z,115.07
2023-02-01T18:43:16.091Z,123.32
2023-02-01T18:45:46.478Z,134.02
2023-02-01T18:48:17.696Z,124.75
2023-02-01T18:50:47.383Z,122.05
2023-02-01T18:53:28.479Z,116.43
2023-02-01T18:55:59.410Z,116.78
2023-02-01T18:58:28.989Z,119.28
2023-02-01T19:01:00.361Z,119.13
2023-02-01T19:03:29.850Z,124.10
2023-02-01T19:05:59.527Z,124.68
2023-02-01T19:08:28.940Z,140.10
2023-02-01T19:11:01.465Z,140.23
2023-02-01T19:13:32.127Z,134.00
2023-02-01T19:16:06.909Z,135.18
2023-02-01T19:18:37.131Z,137.30
2023-02-01T19:21:12.030Z,143.25
2023-02-01T19:23:42.401Z,146.98
2023-02-01T19:26:16.364Z,147.40
2023-02-01T19:28:49.775Z,134.27
2023-02-01T19:31:20.350Z,133.65
2023-02-01T19:33:49.339Z,133.90
2023-02-01T19:36:18.171Z,132.85
2023-02-01T19:38:47.704Z,133.27
2023-02-01T19:41:16.453Z,130.45
2023-02-01T19:43:45.852Z,129.02
2023-02-01T19:46:14.893Z,127.38
2023-02-01T19:48:44.061Z,132.23
2023-02-01T19:51:13.677Z,130.20
2023-02-01T19:53:43.043Z,130.07
2023-02-01T19:56:11.930Z,137.23
2023-02-01T19:58:41.597Z,142.30
2023-02-01T20:01:09.706Z,142.00
2023-02-01T20:03:39.581Z,138.05
2023-02-01T20:06:08.556Z,135.65
2023-02-01T20:08:37.921Z,134.52
2023-02-01T20:11:09.892Z,131.90
2023-02-01T20:13:39.563Z,127.20
2023-02-01T20:16:11.015Z,125.03
2023-02-01T20:18:40.756Z,125.63
2023-02-01T20:21:09.770Z,122.60
2023-02-01T20:23:38.938Z,117.35
2023-02-01T20:26:12.312Z,112.85
2023-02-01T20:28:42.251Z,101.47
2023-02-01T20:31:16.490Z,98.13
2023-02-01T20:33:46.072Z,93.35
2023-02-01T20:36:15.198Z,95.13
2023-02-01T20:38:44.300Z,84.55
2023-02-01T20:41:13.571Z,81.03
2023-02-01T20:43:43.137Z,79.60
2023-02-01T20:46:12.419Z,75.70
2023-02-01T20:48:45.020Z,71.32
2023-02-01T20:51:17.169Z,72.85
2023-02-01T20:53:48.605Z,68.35
2023-02-01T20:56:17.972Z,65.93
2023-02-01T20:58:47.153Z,70.70
2023-02-01T21:01:17.321Z,65.85
2023-02-01T21:03:46.723Z,63.30
2023-02-01T21:06:15.663Z,59.38
2023-02-01T21:08:44.916Z,62.45
2023-02-01T21:11:16.906Z,59.33
2023-02-01T21:13:55.630Z,61.50
2023-02-01T21:16:24.998Z,65.32
2023-02-01T21:18:54.643Z,68.57
2023-02-01T21:21:24.059Z,75.55
2023-02-01T21:23:54.106Z,70.60
2023-02-01T21:26:26.079Z,67.07
2023-02-01T21:28:57.002Z,63.42
2023-02-01T21:31:26.749Z,69.35
2023-02-01T21:33:55.543Z,68.57
2023-02-01T21:36:25.671Z,72.00
2023-02-01T21:39:04.441Z,76.55
2023-02-01T21:41:53.858Z,88.30
2023-02-01T21:44:24.085Z,90.78
2023-02-01T21:46:53.086Z,99.15
2023-02-01T21:49:23.383Z,90.68
2023-02-01T21:51:52.657Z,84.43
2023-02-01T21:54:21.897Z,79.38
2023-02-01T21:56:51.012Z,82.47
2023-02-01T21:59:20.142Z,85.20
2023-02-01T22:01:49.308Z,83.28
2023-02-01T22:04:18.654Z,83.10
2023-02-01T22:06:48.069Z,83.82
2023-02-01T22:09:23.016Z,82.55
2023-02-01T22:11:54.745Z,81.88
2023-02-01T22:14:24.686Z,82.67
2023-02-01T22:16:53.949Z,86.43
2023-02-01T22:19:23.570Z,87.30
2023-02-01T22:21:52.450Z,90.15
2023-02-01T22:24:23.100Z,94.05
2023-02-01T22:26:52.978Z,97.72
2023-02-01T22:29:24.722Z,94.45
2023-02-01T22:31:54.456Z,92.97
2023-02-01T22:34:25.286Z,95.70
2023-02-01T22:36:54.665Z,97.13
2023-02-01T22:39:25.008Z,96.20
2023-02-01T22:41:55.174Z,97.13
2023-02-01T22:44:25.673Z,94.70
2023-02-01T22:46:54.798Z,91.40
2023-02-01T22:49:24.303Z,90.32
2023-02-01T22:51:53.613Z,95.97
2023-02-01T22:54:25.453Z,94.97
2023-02-01T22:56:54.770Z,93.43
2023-02-01T22:59:23.902Z,94.82
2023-02-01T23:01:53.595Z,98.22
2023-02-01T23:04:23.826Z,98.78
2023-02-01T23:06:53.613Z,96.57
2023-02-01T23:09:26.280Z,96.75
2023-02-01T23:11:56.608Z,94.95
2023-02-01T23:14:26.040Z,96.90
2023-02-01T23:16:59.349Z,98.40
2023-02-01T23:19:28.209Z,98.78
2023-02-01T23:21:57.222Z,93.05
2023-02-01T23:24:26.609Z,98.78
2023-02-01T23:26:55.580Z,101.22
2023-02-01T23:29:24.672Z,105.78
2023-02-01T23:31:53.718Z,102.10
2023-02-01T23:34:22.995Z,102.35
2023-02-01T23:36:51.895Z,104.93
2023-02-01T23:39:21.193Z,109.90
2023-02-01T23:41:50.133Z,114.72
2023-02-01T23:44:19.208Z,123.57
2023-02-01T23:46:51.019Z,120.97
2023-02-01T23:49:20.474Z,119.00
2023-02-01T23:51:54.104Z,117.40
2023-02-01T23:54:24.815Z,119.78
2023-02-01T23:56:54.315Z,115.38
2023-02-01T23:59:27.462Z,120.95
